Middleborough, MA

2:32 AM EDT on August 29, 2015 (GMT -0400)
KMAMIDDL3 | | Change Station
CLOSE
Current Station
Personal Weather Station
Location: Middleboro, MA
Elevation: 39 ft
Nearby Weather Stations

Elev 39 ft 41.92 °N, 70.92 °W | Updated 4 seconds ago

Clear
Clear
56.9 °F
Feels Like 56.9 °F
N
0.0
Wind Variable Wind from NW
Gusts 0.0 mph

Today
High -- | Low -- °F
--% Chance of Precip.
Yesterday
High -- | Low -- °F
Precip. -- in
6:05 AM 7:22 PM
Full, 100% visible
Pressure 30.16 in
Visibility 1.8 miles
Clouds Clear
Dew Point 49 °F
Humidity 75%
Rainfall 0.00 in
Snow Depth Not available.
UV 0 out of 12
Pollen 9.70 out of 12
Air Quality Not available.
Flu Activity Not available.
SPECI KTAN 290627Z AUTO 00000KT 1 3/4SM BR CLR 12/12 A3016 RMK AO2 VIS 1V3 T01220117
Pressure 30.16 in
Visibility 1.8 miles
Clouds Clear
Dew Point 49 °F
Humidity 75%
Rainfall 0.00 in
Snow Depth Not available.
UV 0 out of 12
Pollen 9.70 out of 12
Air Quality Not available.
Flu Activity Not available.
SPECI KTAN 290627Z AUTO 00000KT 1 3/4SM BR CLR 12/12 A3016 RMK AO2 VIS 1V3 T01220117

10-Day Weather Forecast

×

Almanac

Astronomy

Aug. 29, 2015 Rise Set
Actual Time
Civil Twilight
Nautical Twilight
Astronomical Twilight
Moon
Length of Visible Light
Length of Day
Tomorrow will be .
, % of the Moon is Illuminated

Today's Extremes

State Highs State Lows

Community

WunderPhotos

Upload Photos

1,850,622 photos uploaded!

WunderBlogs® & News

Nearby

Air Quality

  Air Quality AQ Index Pollutant
Not available.

Snow Depth

Station Depth Elevation

Earthquake Activity

City Distance Mag. Time & Date
Minimum magnitude displayed is 2.5.

Coastal Water Temperatures

Place Temperature

Stations

Nearby Weather Stations

Station Location Temp. Windchill Dew Point Humidity Wind Precip. Elev Updated Type